Time;durP1;ratioP1;P1;durP2;ratioP2;P2;SDS_P1;SDS_P2;PMS_P1;PMS_P2;Temp;Humidity;BMP_temperature;BMP_pressure;BME280_temperature;BME280_humidity;BME280_pressure;Samples;Min_cycle;Max_cycle;Signal;HPM_P1;HPM_P2
2022/01/09 00:00:37;;;;;;;96.78;43.00;;;;;;;-1.92;60.20;96204.36;1753133;80;25770;-83
2022/01/09 00:03:06;;;;;;;92.53;41.60;;;;;;;-1.94;60.28;96206.36;1758712;80;25800;-85
2022/01/09 00:05:34;;;;;;;82.92;39.35;;;;;;;-2.00;60.31;96210.97;1758825;80;26809;-85
2022/01/09 00:08:00;;;;;;;101.50;42.35;;;;;;;-2.03;60.44;96212.61;1758861;81;25723;-82
2022/01/09 00:10:29;;;;;;;93.70;41.05;;;;;;;-2.10;60.52;96209.47;1758894;80;27353;-86
2022/01/09 00:12:58;;;;;;;100.10;44.45;;;;;;;-2.12;60.60;96200.37;1758685;81;25716;-86
2022/01/09 00:15:24;;;;;;;90.72;41.10;;;;;;;-2.10;60.72;96202.36;1758882;81;25849;-82
2022/01/09 00:17:51;;;;;;;113.75;49.25;;;;;;;-2.08;60.75;96203.52;1758882;80;25973;-83
2022/01/09 00:20:18;;;;;;;120.33;53.30;;;;;;;-2.16;60.83;96197.70;1758800;80;25728;-83
2022/01/09 00:22:48;;;;;;;109.70;48.52;;;;;;;-2.25;61.04;96189.43;1758843;81;27335;-85
2022/01/09 00:25:17;;;;;;;110.08;48.90;;;;;;;-2.26;61.15;96183.81;1758664;80;25740;-82
2022/01/09 00:27:45;;;;;;;115.03;49.10;;;;;;;-2.27;61.30;96192.23;1758851;80;25768;-82
2022/01/09 00:30:16;;;;;;;122.07;53.50;;;;;;;-2.26;61.25;96190.42;1758847;80;25990;-86
2022/01/09 00:32:43;;;;;;;98.78;46.60;;;;;;;-2.23;61.32;96180.85;1758783;81;25700;-82
2022/01/09 00:35:10;;;;;;;119.95;48.95;;;;;;;-2.21;61.35;96180.20;1758817;80;27384;-82
2022/01/09 00:37:38;;;;;;;100.35;45.55;;;;;;;-2.25;61.45;96187.62;1758742;81;25689;-82
2022/01/09 00:40:08;;;;;;;101.67;43.42;;;;;;;-2.31;61.50;96183.48;1758754;81;25777;-85
2022/01/09 00:42:34;;;;;;;102.20;43.17;;;;;;;-2.32;61.56;96177.86;1758762;81;26232;-82
2022/01/09 00:45:04;;;;;;;102.42;44.03;;;;;;;-2.34;61.58;96179.84;1758588;81;25714;-86
2022/01/09 00:47:30;;;;;;;102.92;43.98;;;;;;;-2.35;61.72;96176.36;1758788;81;27326;-84
2022/01/09 00:49:58;;;;;;;101.90;43.20;;;;;;;-2.38;61.85;96170.56;1758786;81;25774;-85
2022/01/09 00:52:24;;;;;;;102.62;43.85;;;;;;;-2.40;61.92;96172.05;1758771;81;25852;-83
2022/01/09 00:54:51;;;;;;;98.05;47.23;;;;;;;-2.44;61.91;96168.58;1758545;81;26066;-82
2022/01/09 00:57:18;;;;;;;98.07;43.95;;;;;;;-2.47;61.91;96163.12;1758856;80;25737;-85
2022/01/09 00:59:45;;;;;;;103.55;44.93;;;;;;;-2.50;61.95;96158.15;1750403;81;28072;-82
2022/01/09 01:02:11;;;;;;;102.80;44.00;;;;;;;-2.57;62.04;96151.87;1723243;82;25884;-81
2022/01/09 01:04:39;;;;;;;104.95;43.63;;;;;;;-2.59;62.14;96141.95;1745017;81;26345;-84
2022/01/09 01:07:07;;;;;;;100.97;44.03;;;;;;;-2.61;62.23;96142.10;1752919;81;26222;-82
2022/01/09 01:09:34;;;;;;;94.47;42.83;;;;;;;-2.65;62.20;96135.48;1752972;81;25760;-82
2022/01/09 01:12:01;;;;;;;100.60;44.40;;;;;;;-2.68;62.24;96131.86;1752902;81;27352;-85
2022/01/09 01:14:29;;;;;;;97.75;42.78;;;;;;;-2.71;62.28;96130.02;1752847;81;25768;-82
2022/01/09 01:16:56;;;;;;;91.45;41.02;;;;;;;-2.75;62.44;96118.11;1752915;81;25751;-85
2022/01/09 01:19:22;;;;;;;90.97;41.65;;;;;;;-2.79;62.40;96119.44;1752845;81;25959;-82
2022/01/09 01:21:49;;;;;;;92.17;41.37;;;;;;;-2.86;62.50;96115.28;1752984;81;25883;-86
2022/01/09 01:24:18;;;;;;;90.83;39.67;;;;;;;-2.90;62.63;96117.92;1752852;81;27355;-84
2022/01/09 01:26:45;;;;;;;92.50;39.58;;;;;;;-2.96;62.75;96110.13;1752839;81;25772;-84
2022/01/09 01:29:11;;;;;;;81.75;38.92;;;;;;;-3.01;62.82;96106.30;1752934;81;25832;-86
2022/01/09 01:31:38;;;;;;;88.27;37.20;;;;;;;-3.10;62.93;96109.41;1752446;81;25747;-84
2022/01/09 01:34:04;;;;;;;89.17;36.90;;;;;;;-3.16;63.04;96109.23;1752749;81;25735;-82
2022/01/09 01:36:31;;;;;;;79.67;37.85;;;;;;;-3.17;63.13;96104.94;1752858;81;27368;-86
2022/01/09 01:38:58;;;;;;;89.67;38.45;;;;;;;-3.19;63.22;96110.38;1752802;81;25790;-84
2022/01/09 01:41:24;;;;;;;87.12;39.35;;;;;;;-3.22;63.20;96103.25;1737744;81;25692;-81
2022/01/09 01:43:51;;;;;;;93.72;40.95;;;;;;;-3.27;63.25;96104.57;1722848;83;26597;-81
2022/01/09 01:46:17;;;;;;;82.42;37.17;;;;;;;-3.28;63.24;96103.41;1722873;81;25265;-85
2022/01/09 01:48:44;;;;;;;93.07;37.93;;;;;;;-3.30;63.30;96102.23;1723009;83;27328;-81
2022/01/09 01:51:11;;;;;;;89.55;39.98;;;;;;;-3.31;63.33;96096.63;1722705;83;25769;-84
2022/01/09 01:53:39;;;;;;;91.55;39.18;;;;;;;-3.31;63.41;96096.63;1722848;83;25746;-85
2022/01/09 01:56:06;;;;;;;118.57;49.63;;;;;;;-3.33;63.42;96099.91;1741137;81;26273;-84
2022/01/09 01:58:34;;;;;;;107.90;43.90;;;;;;;-3.37;63.51;96096.41;1741448;82;25849;-84
2022/01/09 02:01:02;;;;;;;94.40;39.58;;;;;;;-3.45;63.49;96091.93;1741153;80;28193;-81
2022/01/09 02:03:29;;;;;;;86.42;36.53;;;;;;;-3.51;63.62;96085.98;1740226;80;25837;-83
2022/01/09 02:05:56;;;;;;;81.95;36.53;;;;;;;-3.53;63.85;96078.70;1740908;81;25708;-82
2022/01/09 02:08:23;;;;;;;75.85;36.53;;;;;;;-3.53;63.85;96078.70;1722348;81;26019;-80
2022/01/09 02:10:50;;;;;;;80.30;35.20;;;;;;;-3.55;63.90;96075.39;1722398;82;25668;-80
2022/01/09 02:13:18;;;;;;;70.78;32.73;;;;;;;-3.52;63.98;96067.17;1722347;82;27349;-83
2022/01/09 02:15:47;;;;;;;73.95;33.67;;;;;;;-3.56;63.95;96076.37;1722338;81;25707;-83
2022/01/09 02:18:20;;;;;;;67.30;30.48;;;;;;;-3.56;63.96;96068.46;1737831;81;25711;-83
2022/01/09 02:20:49;;;;;;;74.75;33.55;;;;;;;-3.60;64.05;96061.84;1752386;81;26004;-84
2022/01/09 02:23:17;;;;;;;69.90;33.20;;;;;;;-3.59;64.12;96066.13;1752460;81;25624;-84
2022/01/09 02:25:46;;;;;;;65.25;31.00;;;;;;;-3.62;64.09;96063.80;1752320;81;27371;-81
2022/01/09 02:28:15;;;;;;;68.87;32.28;;;;;;;-3.68;64.13;96052.57;1752316;81;25760;-80
2022/01/09 02:30:44;;;;;;;62.38;29.12;;;;;;;-3.75;64.20;96052.87;1752370;81;25789;-83
2022/01/09 02:33:16;;;;;;;63.23;29.77;;;;;;;-3.75;64.24;96055.02;1752325;81;27238;-81
2022/01/09 02:35:43;;;;;;;51.00;23.47;;;;;;;-3.70;64.26;96048.77;1750616;81;25489;-83
2022/01/09 02:38:10;;;;;;;58.78;26.55;;;;;;;-3.77;64.19;96050.39;1751329;81;27439;-80
2022/01/09 02:40:37;;;;;;;60.58;27.95;;;;;;;-3.91;64.27;96046.17;1722314;83;25705;-81
2022/01/09 02:43:03;;;;;;;58.95;27.98;;;;;;;-3.98;64.36;96046.47;1722281;81;25744;-80
2022/01/09 02:45:30;;;;;;;52.95;26.12;;;;;;;-4.02;64.46;96054.67;1722254;82;26093;-81
2022/01/09 02:47:59;;;;;;;52.95;25.55;;;;;;;-4.07;64.57;96045.08;1722430;82;25690;-83
2022/01/09 02:52:58;;;;;;;54.15;25.35;;;;;;;-4.27;64.84;96034.89;1750444;81;26060;-82
2022/01/09 02:55:22;;;;;;;49.18;24.63;;;;;;;-4.30;64.95;96033.87;1749581;81;26098;-81
2022/01/09 02:57:53;;;;;;;76.15;30.35;;;;;;;-4.40;65.06;96027.38;1701788;79;27007;-80
2022/01/09 03:00:24;;;;;;;57.55;27.30;;;;;;;-4.47;65.07;96028.47;1662776;85;25758;-81
2022/01/09 03:02:51;;;;;;;51.18;23.92;;;;;;;-4.48;65.23;96036.55;1691024;84;28236;-80
2022/01/09 03:05:18;;;;;;;44.85;21.80;;;;;;;-4.44;65.23;96037.87;1690478;84;25271;-80
2022/01/09 03:07:45;;;;;;;48.83;22.62;;;;;;;-4.44;65.21;96029.97;1659272;84;25992;-83
2022/01/09 03:10:14;;;;;;;46.98;23.42;;;;;;;-4.45;65.18;96034.41;1691161;84;26586;-83
2022/01/09 03:12:41;;;;;;;52.23;23.60;;;;;;;-4.48;65.22;96023.37;1719305;83;25796;-83
2022/01/09 03:15:09;;;;;;;47.70;22.35;;;;;;;-4.47;65.28;96017.13;1719247;83;27364;-81
2022/01/09 03:17:37;;;;;;;47.70;22.52;;;;;;;-4.51;65.38;96010.50;1719213;83;25816;-83
2022/01/09 03:20:08;;;;;;;47.78;22.45;;;;;;;-4.66;65.45;96012.84;1719294;83;25858;-80
2022/01/09 03:22:35;;;;;;;39.55;16.90;;;;;;;-4.75;65.66;96010.64;1719478;83;26697;-79
2022/01/09 03:25:02;;;;;;;44.73;21.10;;;;;;;-4.88;65.82;96015.94;1719453;83;25741;-80
2022/01/09 03:27:28;;;;;;;44.70;21.10;;;;;;;-4.95;65.86;96009.63;1719491;83;27369;-81
2022/01/09 03:29:55;;;;;;;45.70;21.68;;;;;;;-4.93;66.03;96009.80;1719311;83;25754;-80
2022/01/09 03:32:22;;;;;;;45.08;20.85;;;;;;;-4.98;66.11;96010.75;1719467;83;25790;-83
2022/01/09 03:34:48;;;;;;;48.25;22.85;;;;;;;-5.03;66.23;96015.63;1691346;83;26237;-83
2022/01/09 03:37:15;;;;;;;50.67;21.75;;;;;;;-5.04;66.25;96011.34;1692944;83;26332;-80
2022/01/09 03:39:42;;;;;;;49.03;21.42;;;;;;;-5.01;66.29;96013.67;1719468;83;27407;-79
2022/01/09 03:42:08;;;;;;;41.95;20.10;;;;;;;-4.98;66.41;96009.44;1719310;83;25784;-80
2022/01/09 03:44:35;;;;;;;44.98;21.05;;;;;;;-4.94;66.43;96002.88;1719559;83;25767;-79
2022/01/09 03:47:02;;;;;;;46.48;21.33;;;;;;;-4.93;66.50;95987.91;1718407;83;26110;-82
2022/01/09 03:49:28;;;;;;;39.15;19.62;;;;;;;-4.94;66.61;95996.78;1719447;83;25725;-83
2022/01/09 03:51:56;;;;;;;35.23;18.10;;;;;;;-4.96;66.71;95993.50;1719405;83;27999;-80
2022/01/09 03:54:23;;;;;;;37.08;18.35;;;;;;;-5.02;66.85;95985.70;1719297;83;25789;-84
2022/01/09 03:56:51;;;;;;;43.73;19.87;;;;;;;-5.05;67.00;95990.43;1719115;83;25778;-82
2022/01/09 03:59:18;;;;;;;39.20;18.85;;;;;;;-5.06;67.12;95990.92;1719160;82;26633;-80
2022/01/09 04:01:46;;;;;;;37.50;18.55;;;;;;;-5.07;67.12;95977.94;1719369;83;26692;-81
2022/01/09 04:04:13;;;;;;;29.98;15.23;;;;;;;-5.01;67.08;95987.36;1719313;83;27359;-79
2022/01/09 04:06:45;;;;;;;36.93;16.30;;;;;;;-4.98;67.15;95976.55;1719335;83;26411;-80
2022/01/09 04:09:17;;;;;;;34.53;16.75;;;;;;;-5.00;67.18;95965.33;1718827;83;25749;-79
2022/01/09 04:11:39;;;;;;;31.15;15.70;;;;;;;-5.04;67.19;95961.34;1718280;83;26169;-83
2022/01/09 04:14:06;;;;;;;29.65;13.98;;;;;;;-5.02;67.22;95963.83;1697270;83;25726;-82
2022/01/09 04:16:33;;;;;;;35.33;15.35;;;;;;;-5.02;67.24;95963.83;1719403;83;28187;-81
2022/01/09 04:18:59;;;;;;;32.60;14.90;;;;;;;-5.01;67.26;95957.10;1719306;83;25719;-79
2022/01/09 04:21:26;;;;;;;30.45;14.47;;;;;;;-5.01;67.23;95947.89;1719446;83;25855;-83
2022/01/09 04:23:53;;;;;;;29.18;14.45;;;;;;;-4.97;67.20;95949.25;1719344;83;26024;-79
2022/01/09 04:26:21;;;;;;;24.27;13.80;;;;;;;-4.99;67.16;95953.84;1719420;83;25859;-79
2022/01/09 04:28:48;;;;;;;25.32;14.00;;;;;;;-5.04;67.28;95954.77;1719151;83;27410;-79
2022/01/09 04:31:15;;;;;;;28.95;13.75;;;;;;;-5.02;67.31;95948.86;1719035;83;25885;-83
2022/01/09 04:33:42;;;;;;;29.15;14.65;;;;;;;-5.01;67.35;95943.94;1719390;83;25316;-83
2022/01/09 04:36:09;;;;;;;32.03;17.12;;;;;;;-5.00;67.32;95941.66;1719337;83;25972;-82
2022/01/09 04:38:35;;;;;;;35.58;17.23;;;;;;;-5.00;67.32;95947.41;1719176;83;25844;-79
2022/01/09 04:41:02;;;;;;;32.30;17.00;;;;;;;-5.03;67.30;95952.47;1719422;82;28159;-81
2022/01/09 04:43:29;;;;;;;33.98;16.90;;;;;;;-5.01;67.38;95950.52;1719257;83;25717;-79
2022/01/09 04:45:55;;;;;;;35.63;18.85;;;;;;;-4.97;67.43;95955.83;1719363;83;25685;-81
2022/01/09 04:48:22;;;;;;;43.13;19.42;;;;;;;-4.95;67.33;95954.37;1691241;83;25978;-83
2022/01/09 04:50:51;;;;;;;37.25;18.07;;;;;;;-4.93;67.36;95954.53;1690475;84;25717;-79
2022/01/09 04:53:17;;;;;;;34.27;17.45;;;;;;;-4.95;67.20;95949.91;1690134;84;28227;-79
2022/01/09 04:55:47;;;;;;;35.28;16.10;;;;;;;-4.98;67.19;95954.17;1690446;84;25983;-82
2022/01/09 04:58:14;;;;;;;25.90;14.25;;;;;;;-5.02;67.15;95948.04;1690401;83;25387;-79
2022/01/09 05:00:40;;;;;;;28.95;13.62;;;;;;;-5.06;67.22;95951.45;1690442;84;25998;-80
2022/01/09 05:03:07;;;;;;;28.92;15.20;;;;;;;-5.11;67.23;95955.87;1690537;84;26313;-79
2022/01/09 05:05:34;;;;;;;30.70;14.80;;;;;;;-5.11;67.31;95957.67;1690433;84;28433;-82
2022/01/09 05:08:01;;;;;;;31.82;15.93;;;;;;;-5.11;67.31;95957.67;1690311;84;25739;-80
2022/01/09 05:10:27;;;;;;;35.70;18.80;;;;;;;-5.14;67.23;95961.42;1690478;84;25714;-83
2022/01/09 05:12:54;;;;;;;34.75;17.10;;;;;;;-5.18;67.18;95967.95;1690496;84;26740;-78
2022/01/09 05:15:21;;;;;;;40.63;20.27;;;;;;;-5.21;67.23;95967.44;1690470;84;25806;-79
2022/01/09 05:17:50;;;;;;;39.48;19.77;;;;;;;-5.19;67.29;95968.92;1690438;84;28313;-79
2022/01/09 05:20:16;;;;;;;35.60;18.37;;;;;;;-5.26;67.25;95966.56;1690255;84;25892;-82
2022/01/09 05:22:43;;;;;;;34.70;17.55;;;;;;;-5.30;67.33;95973.09;1690371;84;25714;-79
2022/01/09 05:25:10;;;;;;;33.53;18.17;;;;;;;-5.30;67.39;95977.52;1690447;84;25950;-79
2022/01/09 05:27:37;;;;;;;34.80;17.25;;;;;;;-5.35;67.35;95973.21;1690412;84;25806;-78
2022/01/09 05:30:06;;;;;;;32.15;16.17;;;;;;;-5.38;67.38;95970.88;1690403;84;28253;-79
2022/01/09 05:32:34;;;;;;;28.75;16.50;;;;;;;-5.40;67.55;95976.76;1690353;84;25833;-79
2022/01/09 05:35:01;;;;;;;36.68;16.90;;;;;;;-5.36;67.59;95968.92;1690479;84;26407;-78
2022/01/09 05:37:27;;;;;;;37.05;17.25;;;;;;;-5.35;67.58;95973.21;1690362;84;26055;-80
2022/01/09 05:39:54;;;;;;;30.30;16.62;;;;;;;-5.38;67.53;95972.19;1690492;84;26363;-82
2022/01/09 05:42:21;;;;;;;33.55;16.02;;;;;;;-5.45;67.54;95971.96;1690337;84;27349;-82
2022/01/09 05:44:47;;;;;;;43.28;20.57;;;;;;;-5.54;67.64;95974.97;1690325;84;25753;-79
2022/01/09 05:47:14;;;;;;;54.30;23.30;;;;;;;-5.62;67.74;95980.14;1690523;84;25738;-78
2022/01/09 05:49:41;;;;;;;58.42;23.10;;;;;;;-5.66;67.83;95978.77;1690302;84;25970;-79
2022/01/09 05:52:08;;;;;;;61.45;23.62;;;;;;;-5.70;67.88;95979.23;1690229;84;25758;-78
2022/01/09 05:54:34;;;;;;;61.77;23.45;;;;;;;-5.69;67.97;95986.14;1690390;84;28202;-82
2022/01/09 05:57:01;;;;;;;60.15;23.18;;;;;;;-5.67;68.06;95979.74;1690308;84;25781;-82
2022/01/09 05:59:28;;;;;;;40.40;19.45;;;;;;;-5.64;68.10;95983.40;1690278;84;25741;-79
2022/01/09 06:01:56;;;;;;;44.03;18.17;;;;;;;-5.64;68.09;95982.09;1690164;84;26040;-80
2022/01/09 06:04:23;;;;;;;38.45;17.48;;;;;;;-5.63;68.13;95981.11;1690558;84;25726;-83
2022/01/09 06:06:50;;;;;;;38.73;18.80;;;;;;;-5.60;68.16;95987.41;1690490;84;26956;-80
2022/01/09 06:09:16;;;;;;;37.40;19.23;;;;;;;-5.59;68.25;95988.23;1690430;84;25308;-84
2022/01/09 06:11:43;;;;;;;37.98;19.25;;;;;;;-5.57;68.31;95985.80;1690457;84;25745;-81
2022/01/09 06:14:09;;;;;;;42.55;20.20;;;;;;;-5.57;68.28;95984.97;1690422;84;25959;-83
2022/01/09 06:16:36;;;;;;;43.60;22.20;;;;;;;-5.55;68.27;95985.14;1690573;84;25690;-84
2022/01/09 06:19:03;;;;;;;46.83;23.47;;;;;;;-5.56;68.28;95990.58;1690511;84;27586;-81
2022/01/09 06:21:29;;;;;;;53.30;24.40;;;;;;;-5.59;68.27;95987.75;1690351;84;25751;-79
2022/01/09 06:23:56;;;;;;;49.77;23.67;;;;;;;-5.58;68.26;95989.41;1690338;84;25733;-84
2022/01/09 06:26:23;;;;;;;43.63;21.45;;;;;;;-5.56;68.30;95991.41;1690419;84;26147;-79
2022/01/09 06:28:49;;;;;;;38.53;20.15;;;;;;;-5.58;68.36;95990.72;1690391;84;25771;-83
2022/01/09 06:31:16;;;;;;;40.38;19.60;;;;;;;-5.57;68.40;96002.89;1690383;84;27540;-82
2022/01/09 06:33:42;;;;;;;45.65;21.55;;;;;;;-5.57;68.45;96008.15;1690331;84;26556;-84
2022/01/09 06:36:09;;;;;;;47.85;23.20;;;;;;;-5.56;68.51;96008.49;1697919;83;25780;-84
2022/01/09 06:38:37;;;;;;;52.10;23.77;;;;;;;-5.58;68.54;96001.23;1717651;83;26903;-84
2022/01/09 06:41:04;;;;;;;53.38;25.27;;;;;;;-5.58;68.57;96009.61;1717776;82;25661;-84
2022/01/09 06:43:31;;;;;;;55.25;25.65;;;;;;;-5.58;68.60;96007.81;1718362;83;27543;-84
2022/01/09 06:45:57;;;;;;;56.58;25.88;;;;;;;-5.59;68.58;96010.09;1695002;83;25321;-84
2022/01/09 06:48:24;;;;;;;46.40;24.20;;;;;;;-5.60;68.63;96013.69;1710410;83;25670;-84
2022/01/09 06:50:50;;;;;;;50.25;24.05;;;;;;;-5.57;68.71;96013.89;1695640;83;26207;-83
2022/01/09 06:53:17;;;;;;;46.45;23.52;;;;;;;-5.53;68.80;96008.66;1719310;83;25804;-83
2022/01/09 06:55:44;;;;;;;50.08;24.50;;;;;;;-5.48;68.83;96010.38;1719310;83;27472;-83
2022/01/09 06:58:10;;;;;;;62.03;29.80;;;;;;;-5.50;68.80;96005.75;1719450;83;25256;-84
2022/01/09 07:00:37;;;;;;;65.37;33.05;;;;;;;-5.47;68.89;96006.30;1712557;82;25766;-84
2022/01/09 07:03:03;;;;;;;60.78;31.07;;;;;;;-5.40;68.96;96007.83;1712552;83;26625;-84
2022/01/09 07:05:30;;;;;;;67.15;32.48;;;;;;;-5.35;69.02;96011.34;1700328;83;25722;-84
2022/01/09 07:07:56;;;;;;;53.92;25.82;;;;;;;-5.36;69.16;96003.11;1712555;83;27522;-83
2022/01/09 07:10:23;;;;;;;57.05;25.85;;;;;;;-5.33;69.25;96010.72;1712496;83;25801;-83
2022/01/09 07:12:49;;;;;;;49.18;21.37;;;;;;;-5.28;69.33;96006.66;1700087;83;25785;-84
2022/01/09 07:15:16;;;;;;;51.23;24.43;;;;;;;-5.18;69.39;96014.47;1696740;83;26147;-84
2022/01/09 07:17:43;;;;;;;59.38;30.35;;;;;;;-5.12;69.40;96006.00;1686876;83;25759;-83
2022/01/09 07:20:10;;;;;;;65.65;32.00;;;;;;;-5.04;69.46;96008.70;1707706;83;27532;-83
2022/01/09 07:22:37;;;;;;;87.35;40.03;;;;;;;-4.96;69.54;96010.13;1712470;83;25901;-83
2022/01/09 07:25:05;;;;;;;71.65;31.75;;;;;;;-4.87;69.59;96015.80;1712574;83;25786;-84
2022/01/09 07:27:34;;;;;;;58.17;29.77;;;;;;;-4.77;69.59;96004.69;1712466;82;26062;-84
2022/01/09 07:30:00;;;;;;;60.92;29.27;;;;;;;-4.74;69.60;96004.40;1712519;82;25844;-85
2022/01/09 07:32:28;;;;;;;55.35;26.40;;;;;;;-4.67;69.72;96003.78;1712381;83;28352;-84
2022/01/09 07:34:57;;;;;;;54.08;26.95;;;;;;;-4.60;69.71;95995.62;1709574;83;25789;-84
2022/01/09 07:37:25;;;;;;;47.53;24.05;;;;;;;-4.52;69.72;95997.00;1709430;83;25659;-85
2022/01/09 07:39:52;;;;;;;55.70;26.02;;;;;;;-4.46;69.55;95991.93;1712416;83;26213;-85
2022/01/09 07:42:18;;;;;;;49.10;25.17;;;;;;;-4.39;69.60;95987.72;1712373;83;26314;-84
2022/01/09 07:44:45;;;;;;;61.90;29.65;;;;;;;-4.32;69.72;95986.60;1712189;83;27521;-82
2022/01/09 07:47:11;;;;;;;63.95;31.15;;;;;;;-4.28;69.70;95991.08;1700399;83;25318;-83
2022/01/09 07:49:38;;;;;;;53.15;26.42;;;;;;;-4.19;69.81;95985.70;1698351;83;25738;-84
2022/01/09 07:52:05;;;;;;;51.77;25.10;;;;;;;-4.12;69.73;95988.07;1683858;84;26802;-84
2022/01/09 07:54:31;;;;;;;68.55;31.40;;;;;;;-4.06;69.72;95986.11;1683871;84;26265;-83
2022/01/09 07:56:58;;;;;;;61.25;30.65;;;;;;;-4.04;69.68;95978.88;1685525;83;28180;-83
2022/01/09 07:59:24;;;;;;;62.27;28.83;;;;;;;-3.96;69.70;95975.95;1695253;83;25816;-84
2022/01/09 08:01:51;;;;;;;54.83;27.40;;;;;;;-3.89;69.58;95977.81;1683680;84;26331;-84
2022/01/09 08:04:18;;;;;;;53.52;25.37;;;;;;;-3.86;69.63;95969.56;1683879;84;25965;-83
2022/01/09 08:06:45;;;;;;;70.45;34.03;;;;;;;-3.84;69.59;95970.25;1683852;84;25746;-83
2022/01/09 08:09:11;;;;;;;70.47;35.68;;;;;;;-3.77;69.63;95970.45;1687905;83;27443;-83
2022/01/09 08:11:38;;;;;;;68.62;33.58;;;;;;;-3.70;69.50;95969.66;1683859;83;25806;-83
2022/01/09 08:14:04;;;;;;;73.72;37.05;;;;;;;-3.64;69.55;95969.03;1683808;84;25768;-83
2022/01/09 08:16:31;;;;;;;76.45;35.92;;;;;;;-3.51;69.52;95960.67;1683876;83;25964;-82
2022/01/09 08:18:57;;;;;;;74.67;36.60;;;;;;;-3.43;69.43;95960.69;1683895;83;25811;-82
2022/01/09 08:21:24;;;;;;;70.25;35.65;;;;;;;-3.35;69.35;95963.34;1683853;83;27238;-82
2022/01/09 08:23:50;;;;;;;75.03;38.28;;;;;;;-3.28;69.31;95961.73;1683709;83;25697;-84
2022/01/09 08:26:18;;;;;;;78.75;38.05;;;;;;;-3.18;69.20;95960.76;1683852;83;26363;-83
2022/01/09 08:28:47;;;;;;;91.00;42.00;;;;;;;-3.10;69.12;95958.12;1683846;83;26129;-83
2022/01/09 08:31:16;;;;;;;87.75;40.98;;;;;;;-2.99;69.11;95949.89;1683840;83;26506;-84
2022/01/09 08:33:43;;;;;;;84.37;40.33;;;;;;;-2.84;69.03;95948.26;1683919;83;27555;-84
2022/01/09 08:36:09;;;;;;;80.70;36.08;;;;;;;-2.72;68.90;95950.91;1683772;83;26391;-83
2022/01/09 08:38:36;;;;;;;80.00;35.88;;;;;;;-2.62;68.86;95948.92;1683787;83;26097;-84
2022/01/09 08:41:03;;;;;;;87.33;36.93;;;;;;;-2.50;68.72;95943.30;1683876;84;26129;-84
2022/01/09 08:43:31;;;;;;;76.15;32.80;;;;;;;-2.35;68.65;95949.57;1683890;85;25686;-84
2022/01/09 08:45:59;;;;;;;70.35;31.27;;;;;;;-2.17;68.54;95948.07;1683802;83;27383;-85
2022/01/09 08:48:26;;;;;;;59.38;28.40;;;;;;;-1.97;68.41;95951.48;1683692;83;25760;-84
2022/01/09 08:50:52;;;;;;;53.90;22.85;;;;;;;-1.74;68.23;95950.75;1683762;84;25836;-85
2022/01/09 08:53:20;;;;;;;37.48;17.67;;;;;;;-1.52;68.05;95953.97;1683753;83;25977;-85
2022/01/09 08:55:46;;;;;;;35.80;18.15;;;;;;;-1.30;67.76;95947.08;1693670;83;25794;-85
2022/01/09 08:58:13;;;;;;;48.87;24.32;;;;;;;-1.07;67.40;95947.11;1689803;83;27365;-85
2022/01/09 09:00:40;;;;;;;46.42;23.30;;;;;;;-0.87;67.29;95947.00;1716522;82;25702;-85
2022/01/09 09:03:08;;;;;;;41.90;18.87;;;;;;;-0.60;66.99;95941.15;1718252;82;25995;-86
2022/01/09 09:05:35;;;;;;;43.83;18.25;;;;;;;-0.32;66.73;95933.97;1690417;83;26080;-87
2022/01/09 09:08:03;;;;;;;36.73;17.60;;;;;;;-0.05;66.32;95927.58;1700077;83;25284;-86
2022/01/09 09:10:30;;;;;;;28.60;14.00;;;;;;;0.27;65.83;95924.23;1691890;82;27427;-87
2022/01/09 09:12:56;;;;;;;24.05;12.37;;;;;;;0.53;65.34;95921.93;1709910;83;26485;-86
2022/01/09 09:15:23;;;;;;;20.37;12.28;;;;;;;0.82;65.02;95920.23;1719292;83;25777;-86
2022/01/09 09:17:50;;;;;;;23.77;11.80;;;;;;;1.06;64.71;95915.41;1719321;83;26685;-87
2022/01/09 09:20:16;;;;;;;23.60;12.58;;;;;;;1.26;64.18;95918.25;1719246;82;26325;-88
2022/01/09 09:22:43;;;;;;;26.33;13.65;;;;;;;1.36;63.81;95913.44;1719372;83;27529;-87
2022/01/09 09:25:10;;;;;;;22.75;12.10;;;;;;;1.50;63.44;95909.06;1712539;82;25639;-87
2022/01/09 09:27:37;;;;;;;22.15;12.78;;;;;;;1.64;63.30;95909.50;1703789;83;26500;-87
2022/01/09 09:30:06;;;;;;;23.83;12.90;;;;;;;1.85;62.75;95905.14;1690398;83;26176;-87
2022/01/09 09:32:32;;;;;;;22.87;12.90;;;;;;;2.10;62.45;95913.00;1695348;83;26273;-88
2022/01/09 09:34:59;;;;;;;23.47;12.98;;;;;;;2.28;61.84;95903.19;1690360;83;27463;-89
2022/01/09 09:37:28;;;;;;;23.27;12.73;;;;;;;2.41;61.53;95907.26;1688999;84;26444;-87
2022/01/09 09:39:55;;;;;;;20.05;12.10;;;;;;;2.53;61.42;95907.84;1718229;83;26313;-87
2022/01/09 09:42:32;;;;;;;19.85;11.85;;;;;;;2.75;60.68;95907.20;1887514;75;26037;-86
2022/01/09 09:45:01;;;;;;;24.47;12.23;;;;;;;2.77;60.33;95920.34;1856521;76;25819;-87
2022/01/09 09:47:28;;;;;;;21.02;11.90;;;;;;;2.86;60.48;95921.29;1811750;78;28140;-86
2022/01/09 09:49:55;;;;;;;24.95;12.40;;;;;;;2.84;59.46;95918.50;1811573;78;25741;-87
2022/01/09 09:52:22;;;;;;;20.43;11.70;;;;;;;2.99;59.50;95909.86;1811710;79;25816;-88
2022/01/09 09:54:50;;;;;;;25.95;12.63;;;;;;;3.21;59.48;95913.19;1833199;77;25709;-87
2022/01/09 09:57:17;;;;;;;25.60;13.72;;;;;;;3.35;58.77;95912.20;1853923;76;25677;-88
2022/01/09 09:59:44;;;;;;;21.68;12.10;;;;;;;3.37;58.00;95914.66;1836671;76;27265;-88
2022/01/09 10:02:13;;;;;;;22.98;11.90;;;;;;;3.53;58.27;95915.59;1836089;76;25805;-89
2022/01/09 10:05:03;;;;;;;20.62;11.70;;;;;;;3.75;58.05;95916.22;1836128;76;25741;-89
2022/01/09 10:07:29;;;;;;;22.87;12.00;;;;;;;4.02;57.84;95915.19;1824897;77;25844;-89
2022/01/09 10:10:08;;;;;;;22.75;12.30;;;;;;;4.34;57.67;95916.20;1829917;77;25688;-89
2022/01/09 10:12:35;;;;;;;21.45;11.53;;;;;;;4.62;57.18;95912.71;1829451;78;27382;-88
2022/01/09 10:15:10;;;;;;;22.13;12.43;;;;;;;4.84;56.37;95907.08;1829808;76;25689;-89
2022/01/09 10:17:44;;;;;;;26.77;13.13;;;;;;;4.93;56.24;95901.82;1829922;76;25746;-88
2022/01/09 10:20:25;;;;;;;19.87;11.40;;;;;;;5.03;55.62;95900.84;1829785;76;25681;-89
2022/01/09 10:22:56;;;;;;;20.52;12.45;;;;;;;5.07;54.72;95900.73;1829962;76;25768;-89
2022/01/09 10:25:38;;;;;;;23.62;12.95;;;;;;;5.11;55.10;95900.58;1829894;76;28160;-89
2022/01/09 10:28:16;;;;;;;24.43;13.55;;;;;;;5.24;55.08;95906.38;1829895;76;25681;-88
2022/01/09 10:30:53;;;;;;;26.07;14.50;;;;;;;5.49;54.90;95903.77;1827478;76;25757;-88
2022/01/09 10:33:24;;;;;;;19.82;11.93;;;;;;;5.74;54.19;95896.59;1827271;78;25753;-88
2022/01/09 10:35:51;;;;;;;22.35;12.50;;;;;;;5.92;53.78;95903.36;1826280;76;25681;-89
2022/01/09 10:38:22;;;;;;;20.00;11.85;;;;;;;6.12;53.38;95896.51;1827242;78;27414;-88
2022/01/09 10:40:54;;;;;;;18.80;12.58;;;;;;;6.17;52.29;95894.48;1827093;77;25721;-89
2022/01/09 10:43:25;;;;;;;24.70;12.47;;;;;;;6.25;52.46;95895.56;1827445;78;25670;-88
2022/01/09 10:46:01;;;;;;;23.70;12.47;;;;;;;6.30;52.45;95871.59;1825431;76;25796;-89
2022/01/09 10:48:39;;;;;;;24.32;12.70;;;;;;;6.80;52.38;95893.73;1827019;78;25762;-89
2022/01/09 10:51:10;;;;;;;25.30;12.80;;;;;;;7.13;51.56;95886.59;1827235;78;28217;-89
2022/01/09 10:53:39;;;;;;;18.98;11.55;;;;;;;7.26;51.39;95884.27;1826745;78;25896;-89
2022/01/09 10:56:19;;;;;;;20.27;11.05;;;;;;;7.44;50.82;95889.08;1826693;77;25765;-89
2022/01/09 10:58:52;;;;;;;18.67;10.75;;;;;;;7.66;51.11;95884.52;1824326;77;26111;-89
2022/01/09 11:01:31;;;;;;;25.37;12.25;;;;;;;7.75;50.21;95888.51;1826697;78;25722;-89
2022/01/09 11:04:06;;;;;;;19.82;11.50;;;;;;;7.91;49.76;95885.98;1826550;77;27368;-89
2022/01/09 11:06:36;;;;;;;19.85;11.48;;;;;;;7.97;49.09;95882.88;1826615;77;25833;-89
2022/01/09 11:09:05;;;;;;;16.93;10.90;;;;;;;7.97;48.89;95883.43;1826702;77;25686;-89
2022/01/09 11:11:43;;;;;;;17.55;10.05;;;;;;;7.99;48.18;95879.44;1826736;78;25804;-89
2022/01/09 11:14:08;;;;;;;15.45;9.68;;;;;;;8.05;48.20;95877.70;1824961;77;25233;-90
2022/01/09 11:16:37;;;;;;;17.95;10.65;;;;;;;8.10;47.93;95877.28;1826766;76;27351;-90
2022/01/09 11:19:09;;;;;;;18.55;11.05;;;;;;;8.21;47.91;95875.13;1826616;78;25829;-89
2022/01/09 11:21:40;;;;;;;16.67;10.38;;;;;;;8.43;48.01;95874.59;1826177;78;26395;-88
2022/01/09 11:24:52;;;;;;;18.95;10.45;;;;;;;8.64;47.17;95871.28;1826163;77;25731;-89